Time;durP1;ratioP1;P1;durP2;ratioP2;P2;SDS_P1;SDS_P2;PMS_P1;PMS_P2;Temp;Humidity;BMP_temperature;BMP_pressure;BME280_temperature;BME280_humidity;BME280_pressure;Samples;Min_cycle;Max_cycle;Signal;HPM_P1;HPM_P2
2020/12/20 00:01:06;;;;;;;49.27;23.70;;;;;;;9.18;54.79;101921.67;1736124;82;21201;-77
2020/12/20 00:03:34;;;;;;;45.65;22.60;;;;;;;9.19;54.82;101930.05;1780111;80;21788;-77
2020/12/20 00:06:02;;;;;;;47.85;21.90;;;;;;;9.15;54.88;101931.61;1732612;82;21197;-77
2020/12/20 00:08:30;;;;;;;42.93;21.02;;;;;;;9.07;55.05;101931.31;1757991;80;21179;-78
2020/12/20 00:10:58;;;;;;;44.77;21.48;;;;;;;9.05;55.14;101929.73;1752910;80;21179;-79
2020/12/20 00:13:26;;;;;;;43.33;20.95;;;;;;;9.04;55.16;101918.67;1751329;80;21122;-77
2020/12/20 00:15:53;;;;;;;43.95;20.43;;;;;;;9.03;55.16;101924.48;1784191;80;21367;-79
2020/12/20 00:18:23;;;;;;;53.92;24.65;;;;;;;9.02;55.21;101922.78;1785365;80;21344;-80
2020/12/20 00:20:51;;;;;;;49.70;22.73;;;;;;;9.01;55.36;101923.75;1733970;82;21644;-77
2020/12/20 00:23:18;;;;;;;49.83;24.12;;;;;;;9.01;55.43;101925.09;1746696;81;21165;-77
2020/12/20 00:25:46;;;;;;;50.45;23.67;;;;;;;9.00;55.48;101925.20;1755250;81;21179;-79
2020/12/20 00:28:14;;;;;;;45.60;21.33;;;;;;;9.00;55.47;101931.41;1755363;81;21238;-78
2020/12/20 00:30:41;;;;;;;45.73;20.68;;;;;;;8.99;55.51;101932.34;1755153;81;21165;-77
2020/12/20 00:33:10;;;;;;;43.50;20.48;;;;;;;8.95;55.64;101930.89;1751122;81;21459;-78
2020/12/20 00:35:38;;;;;;;42.15;19.42;;;;;;;8.93;55.75;101928.80;1755551;81;21180;-78
2020/12/20 00:38:05;;;;;;;44.73;21.97;;;;;;;8.93;55.78;101932.80;1756823;81;22308;-78
2020/12/20 00:40:34;;;;;;;44.08;21.10;;;;;;;8.93;55.82;101935.48;1758892;81;21426;-78
2020/12/20 00:43:01;;;;;;;44.03;21.00;;;;;;;8.91;55.92;101927.22;1755136;81;21529;-80
2020/12/20 00:45:29;;;;;;;47.65;22.30;;;;;;;8.91;55.96;101928.06;1751148;81;21135;-78
2020/12/20 00:47:57;;;;;;;45.88;21.35;;;;;;;8.93;55.97;101930.12;1746899;81;21212;-77
2020/12/20 00:50:24;;;;;;;42.35;19.95;;;;;;;8.99;55.79;101921.66;1755488;81;21164;-78
2020/12/20 00:52:52;;;;;;;45.33;19.15;;;;;;;9.00;55.74;101926.06;1759110;81;22152;-79
2020/12/20 00:55:20;;;;;;;39.42;18.82;;;;;;;8.99;55.77;101921.66;1751252;81;21638;-79
2020/12/20 00:57:49;;;;;;;38.23;17.25;;;;;;;8.98;55.78;101919.95;1755708;81;21127;-79
2020/12/20 01:00:16;;;;;;;42.93;21.90;;;;;;;9.00;55.78;101925.20;1728726;80;21172;-79
2020/12/20 01:02:44;;;;;;;44.15;20.92;;;;;;;9.03;55.78;101927.16;1780220;80;21657;-78
2020/12/20 01:05:12;;;;;;;42.83;20.52;;;;;;;9.05;55.78;101919.89;1777852;80;21465;-78
2020/12/20 01:07:40;;;;;;;43.28;21.15;;;;;;;9.07;55.77;101920.62;1771810;80;21177;-78
2020/12/20 01:10:07;;;;;;;39.73;19.15;;;;;;;9.08;55.81;101919.67;1741372;82;21168;-80
2020/12/20 01:12:37;;;;;;;38.05;19.12;;;;;;;9.09;55.80;101924.53;1765208;80;21152;-78
2020/12/20 01:15:07;;;;;;;38.58;18.25;;;;;;;9.12;55.72;101923.80;1772618;80;21168;-78
2020/12/20 01:17:38;;;;;;;36.77;17.20;;;;;;;9.13;55.67;101925.53;1774931;80;21376;-79
2020/12/20 01:20:06;;;;;;;33.67;15.93;;;;;;;9.13;55.66;101921.52;1774591;80;21185;-78
2020/12/20 01:22:35;;;;;;;34.73;18.15;;;;;;;9.16;55.60;101927.11;1747044;80;22133;-78
2020/12/20 01:25:04;;;;;;;37.17;19.62;;;;;;;9.15;55.60;101931.61;1765431;80;21670;-78
2020/12/20 01:27:32;;;;;;;37.95;18.20;;;;;;;9.17;55.65;101939.50;1756456;80;21202;-78
2020/12/20 01:30:00;;;;;;;38.13;18.62;;;;;;;9.19;55.63;101934.06;1748267;81;21372;-80
2020/12/20 01:32:28;;;;;;;38.15;18.32;;;;;;;9.21;55.60;101930.78;1774436;80;21157;-79
2020/12/20 01:34:58;;;;;;;35.70;16.80;;;;;;;9.21;55.58;101934.30;1755789;80;21624;-77
2020/12/20 01:37:26;;;;;;;36.03;18.65;;;;;;;9.21;55.53;101936.13;1782469;80;21125;-77
2020/12/20 01:39:54;;;;;;;35.17;17.15;;;;;;;9.20;55.56;101937.10;1757819;80;21165;-79
2020/12/20 01:42:22;;;;;;;34.23;16.85;;;;;;;9.19;55.56;101936.25;1773531;80;21858;-78
2020/12/20 01:44:52;;;;;;;35.98;18.00;;;;;;;9.18;55.60;101938.56;1763270;80;21216;-77
2020/12/20 01:47:22;;;;;;;35.73;17.35;;;;;;;9.17;55.63;101934.16;1748454;82;21157;-80
2020/12/20 01:49:52;;;;;;;34.98;18.40;;;;;;;9.18;55.68;101931.03;1778109;80;21207;-78
2020/12/20 01:52:20;;;;;;;37.35;18.07;;;;;;;9.22;55.66;101936.48;1736994;82;21177;-78
2020/12/20 01:54:50;;;;;;;37.60;17.82;;;;;;;9.22;55.66;101935.16;1756804;80;21184;-76
2020/12/20 01:57:20;;;;;;;37.83;18.00;;;;;;;9.21;55.63;101934.80;1764759;80;21209;-78
2020/12/20 01:59:49;;;;;;;32.60;16.17;;;;;;;9.21;55.59;101942.81;1729325;82;21188;-78
2020/12/20 02:02:20;;;;;;;29.25;14.47;;;;;;;9.19;55.60;101940.27;1758802;80;21169;-77
2020/12/20 02:04:49;;;;;;;36.93;18.80;;;;;;;9.18;55.64;101936.38;1778747;80;21651;-78
2020/12/20 02:07:17;;;;;;;36.00;17.75;;;;;;;9.17;55.66;101939.98;1777203;80;22194;-79
2020/12/20 02:09:46;;;;;;;36.65;18.40;;;;;;;9.18;55.67;101944.39;1771848;80;21186;-76
2020/12/20 02:12:16;;;;;;;33.63;17.02;;;;;;;9.21;55.63;101938.80;1774532;80;21160;-78
2020/12/20 02:14:53;;;;;;;35.15;17.25;;;;;;;9.19;55.67;101944.27;1761600;80;21184;-79
2020/12/20 02:17:21;;;;;;;38.15;17.50;;;;;;;9.19;55.67;101938.92;1774163;80;21128;-78
2020/12/20 02:19:49;;;;;;;36.75;16.80;;;;;;;9.21;55.64;101945.48;1735445;81;21816;-78
2020/12/20 02:22:29;;;;;;;34.10;16.55;;;;;;;9.18;55.65;101948.41;1771296;80;21189;-80
2020/12/20 02:24:59;;;;;;;31.62;16.73;;;;;;;9.17;55.63;101950.20;1744848;81;21105;-79
2020/12/20 02:27:29;;;;;;;35.35;17.37;;;;;;;9.15;55.70;101946.80;1757433;80;21126;-78
2020/12/20 02:29:57;;;;;;;33.65;16.90;;;;;;;9.17;55.76;101948.02;1762745;80;21123;-79
2020/12/20 02:32:25;;;;;;;29.10;15.58;;;;;;;9.17;55.77;101950.69;1741234;80;21359;-77
2020/12/20 02:34:53;;;;;;;30.85;16.00;;;;;;;9.16;55.77;101955.18;1738771;82;21130;-77
2020/12/20 02:37:20;;;;;;;31.87;16.15;;;;;;;9.15;55.77;101954.33;1737841;82;21166;-80
2020/12/20 02:39:56;;;;;;;25.60;14.15;;;;;;;9.18;55.75;101959.09;1726983;83;21155;-76
2020/12/20 02:42:25;;;;;;;34.08;17.20;;;;;;;9.17;55.76;101956.03;1719254;82;21143;-76
2020/12/20 02:44:54;;;;;;;31.25;16.35;;;;;;;9.15;55.80;101963.69;1748811;82;21368;-76
2020/12/20 02:47:22;;;;;;;37.80;18.00;;;;;;;9.18;55.79;101965.30;1718878;82;21437;-78
2020/12/20 02:49:50;;;;;;;34.10;17.25;;;;;;;9.19;55.80;101960.31;1747719;82;21151;-77
2020/12/20 02:52:19;;;;;;;33.78;16.90;;;;;;;9.20;55.75;101961.16;1745065;82;21306;-78
2020/12/20 02:54:47;;;;;;;35.10;17.12;;;;;;;9.19;55.75;101960.31;1748200;82;21198;-78
2020/12/20 02:57:17;;;;;;;36.05;16.57;;;;;;;9.05;56.08;101963.99;1746979;82;22345;-79
2020/12/20 03:00:01;;;;;;;30.35;15.30;;;;;;;9.14;55.88;101963.32;1743759;82;21199;-79
2020/12/20 03:02:30;;;;;;;32.03;16.75;;;;;;;9.14;55.87;101966.00;1748453;81;21619;-78
2020/12/20 03:04:59;;;;;;;33.02;16.55;;;;;;;9.15;55.80;101971.70;1744785;80;21174;-78
2020/12/20 03:07:27;;;;;;;35.03;17.10;;;;;;;9.14;55.83;101967.33;1742976;81;21615;-79
2020/12/20 03:09:56;;;;;;;39.35;16.85;;;;;;;9.13;55.81;101966.97;1750539;81;21203;-78
2020/12/20 03:12:24;;;;;;;32.80;16.25;;;;;;;9.14;55.77;101964.66;1747065;81;21203;-80
2020/12/20 03:14:52;;;;;;;39.18;18.30;;;;;;;9.14;55.74;101967.33;1750955;81;21534;-80
2020/12/20 03:17:19;;;;;;;33.63;17.30;;;;;;;9.14;55.71;101967.33;1742764;81;21186;-78
2020/12/20 03:19:48;;;;;;;29.35;14.50;;;;;;;9.11;55.75;101964.88;1738696;81;21186;-79
2020/12/20 03:22:18;;;;;;;33.28;16.75;;;;;;;9.06;55.87;101971.04;1747530;81;21489;-77
2020/12/20 03:25:04;;;;;;;33.13;17.20;;;;;;;9.04;55.93;101966.79;1745964;81;21229;-76
2020/12/20 03:27:39;;;;;;;35.80;18.12;;;;;;;9.06;55.96;101967.52;1741984;81;21614;-78
2020/12/20 03:30:21;;;;;;;37.90;18.30;;;;;;;9.06;55.93;101975.05;1715897;81;21198;-76
2020/12/20 03:32:51;;;;;;;35.33;17.48;;;;;;;9.07;55.87;101972.73;1746297;81;21027;-76
2020/12/20 03:35:23;;;;;;;33.53;16.40;;;;;;;9.07;55.89;101979.91;1748109;81;21209;-80
2020/12/20 03:37:55;;;;;;;31.12;15.58;;;;;;;9.06;55.87;101976.38;1743929;81;21190;-80
2020/12/20 03:40:25;;;;;;;32.48;15.30;;;;;;;9.05;55.86;101980.03;1751045;81;21138;-78
2020/12/20 03:42:54;;;;;;;32.93;15.30;;;;;;;9.03;55.90;101989.95;1747320;81;21193;-78
2020/12/20 03:45:23;;;;;;;33.78;17.80;;;;;;;9.02;55.93;101984.25;1742952;81;21986;-80
2020/12/20 03:47:51;;;;;;;29.12;15.35;;;;;;;9.06;55.92;101980.39;1744707;81;21308;-79
2020/12/20 03:50:20;;;;;;;31.48;16.02;;;;;;;9.08;55.87;101991.84;1750698;81;21136;-80
2020/12/20 03:52:48;;;;;;;33.78;15.00;;;;;;;9.13;55.76;101989.69;1735951;81;21191;-79
2020/12/20 03:55:20;;;;;;;34.35;16.45;;;;;;;9.13;55.71;101987.50;1766639;78;21520;-76
2020/12/20 03:57:49;;;;;;;30.77;15.25;;;;;;;9.11;55.71;101990.27;1750209;80;21197;-78
2020/12/20 04:00:19;;;;;;;29.57;15.50;;;;;;;9.10;55.73;101995.25;1773951;80;21801;-77
2020/12/20 04:02:54;;;;;;;27.80;14.68;;;;;;;9.09;55.67;101998.89;1772483;80;21087;-78
2020/12/20 04:05:24;;;;;;;26.45;14.53;;;;;;;9.11;55.64;102002.30;1756443;80;21060;-76
2020/12/20 04:07:52;;;;;;;35.03;16.42;;;;;;;9.03;55.81;102000.65;1758732;80;21186;-78
2020/12/20 04:10:20;;;;;;;30.62;16.10;;;;;;;9.00;55.88;102006.23;1744252;80;21154;-79
2020/12/20 04:12:49;;;;;;;32.15;16.32;;;;;;;9.07;55.74;102003.48;1765700;80;21352;-81
2020/12/20 04:15:16;;;;;;;32.40;16.35;;;;;;;9.08;55.68;102006.55;1754091;80;21214;-77
2020/12/20 04:17:45;;;;;;;34.48;17.37;;;;;;;9.08;55.69;102004.33;1764907;80;21469;-77
2020/12/20 04:20:13;;;;;;;27.93;14.53;;;;;;;9.05;55.69;102009.43;1754582;80;21194;-77
2020/12/20 04:22:45;;;;;;;31.50;16.35;;;;;;;9.07;55.68;102010.16;1769868;80;21636;-79
2020/12/20 04:25:15;;;;;;;31.85;15.88;;;;;;;9.09;55.67;102013.59;1754502;79;21829;-78
2020/12/20 04:27:48;;;;;;;36.08;17.82;;;;;;;9.09;55.67;102015.42;1759021;80;21534;-77
2020/12/20 04:30:16;;;;;;;36.13;17.32;;;;;;;9.09;55.67;102010.92;1760882;80;21206;-78
2020/12/20 04:32:45;;;;;;;30.25;15.50;;;;;;;9.12;55.60;102015.17;1752667;80;21222;-77
2020/12/20 04:35:13;;;;;;;31.60;16.00;;;;;;;9.14;55.53;102015.45;1758927;80;21042;-77
2020/12/20 04:37:41;;;;;;;28.55;15.63;;;;;;;9.12;55.53;102018.70;1755862;80;22240;-78
2020/12/20 04:40:11;;;;;;;31.35;16.02;;;;;;;9.12;55.47;102020.03;1748489;80;21384;-77
2020/12/20 04:42:41;;;;;;;29.80;15.25;;;;;;;9.10;55.50;102019.31;1749398;80;21174;-76
2020/12/20 04:45:09;;;;;;;32.67;16.12;;;;;;;9.09;55.48;102018.94;1780365;80;21197;-78
2020/12/20 04:47:39;;;;;;;32.08;16.42;;;;;;;9.09;55.49;102025.63;1780361;80;21193;-77
2020/12/20 04:50:08;;;;;;;30.35;16.17;;;;;;;9.04;55.62;102034.45;1723443;81;22880;-77
2020/12/20 04:52:36;;;;;;;29.07;15.98;;;;;;;9.06;55.66;102031.18;1752504;81;21694;-79
2020/12/20 04:55:04;;;;;;;31.05;16.02;;;;;;;9.08;55.58;102029.27;1780585;80;21184;-77
2020/12/20 04:57:52;;;;;;;28.60;16.27;;;;;;;9.11;55.52;102037.05;1780942;80;21634;-77
2020/12/20 05:00:21;;;;;;;32.08;16.00;;;;;;;9.09;55.49;102040.33;1780419;80;21216;-78
2020/12/20 05:02:50;;;;;;;29.10;14.85;;;;;;;9.10;55.50;102040.69;1723324;81;21397;-78
2020/12/20 05:05:18;;;;;;;27.58;14.83;;;;;;;8.97;55.79;102046.53;1753085;81;21226;-78
2020/12/20 05:07:46;;;;;;;28.07;15.15;;;;;;;8.98;55.85;102044.72;1753132;81;21171;-78
2020/12/20 05:10:16;;;;;;;28.32;15.63;;;;;;;8.97;55.85;102043.02;1772146;80;21165;-76
2020/12/20 05:12:46;;;;;;;27.77;14.98;;;;;;;8.97;55.81;102042.53;1752901;80;21205;-79
2020/12/20 05:15:20;;;;;;;30.37;16.30;;;;;;;9.00;55.77;102044.99;1774509;80;22090;-79
2020/12/20 05:18:08;;;;;;;27.98;14.83;;;;;;;8.99;55.73;102045.93;1745060;82;21199;-78
2020/12/20 05:20:42;;;;;;;26.37;13.65;;;;;;;9.09;55.64;102055.52;1745325;82;21502;-79
2020/12/20 05:23:12;;;;;;;31.70;16.52;;;;;;;9.09;55.64;102055.52;1808134;78;21437;-78
2020/12/20 05:25:41;;;;;;;28.65;15.72;;;;;;;9.12;55.44;102049.92;1818008;78;21177;-77
2020/12/20 05:28:18;;;;;;;29.18;15.15;;;;;;;9.13;55.43;102055.19;1818210;78;22184;-79
2020/12/20 05:30:48;;;;;;;31.00;16.35;;;;;;;9.14;55.44;102061.38;1817871;78;21176;-77
2020/12/20 05:33:29;;;;;;;29.35;15.70;;;;;;;9.12;55.43;102069.48;1817826;78;21255;-77
2020/12/20 05:36:06;;;;;;;30.37;15.70;;;;;;;9.11;55.49;102059.77;1816351;78;21105;-78
2020/12/20 05:38:36;;;;;;;32.20;16.67;;;;;;;9.12;55.41;102065.48;1812845;78;21184;-77
2020/12/20 05:41:04;;;;;;;31.12;15.28;;;;;;;9.10;55.44;102068.76;1813221;78;21364;-76
2020/12/20 05:43:32;;;;;;;26.12;14.30;;;;;;;9.07;55.46;102074.80;1817732;78;21209;-76
2020/12/20 05:46:02;;;;;;;31.27;16.57;;;;;;;9.07;55.48;102073.46;1818094;78;21185;-77
2020/12/20 05:48:38;;;;;;;30.12;15.98;;;;;;;9.05;55.53;102075.41;1817697;78;21188;-77
2020/12/20 05:51:08;;;;;;;41.73;20.12;;;;;;;9.06;55.58;102070.42;1818031;78;21691;-79
2020/12/20 05:53:36;;;;;;;33.85;17.65;;;;;;;9.08;55.52;102068.03;1816983;78;21388;-78
2020/12/20 05:56:04;;;;;;;32.78;16.00;;;;;;;8.57;56.78;102078.70;1817741;78;21177;-77
2020/12/20 05:58:34;;;;;;;32.70;16.50;;;;;;;9.00;55.79;102083.75;1817972;78;21157;-78
2020/12/20 06:01:02;;;;;;;31.62;16.05;;;;;;;9.03;55.72;102082.17;1818579;78;21216;-78
2020/12/20 06:03:29;;;;;;;32.00;17.20;;;;;;;9.07;55.64;102084.16;1818024;78;21138;-79
2020/12/20 06:06:01;;;;;;;30.05;15.75;;;;;;;9.07;55.63;102074.31;1811130;78;21761;-78
2020/12/20 06:08:32;;;;;;;30.00;16.15;;;;;;;9.10;55.58;102082.13;1817612;78;21172;-77
2020/12/20 06:11:02;;;;;;;30.15;16.87;;;;;;;9.13;55.49;102087.75;1784553;78;21173;-79
2020/12/20 06:13:31;;;;;;;28.35;15.60;;;;;;;9.14;55.43;102083.62;1779551;80;21162;-77
2020/12/20 06:15:59;;;;;;;27.07;14.73;;;;;;;9.14;55.34;102082.28;1754439;80;21600;-77
2020/12/20 06:18:30;;;;;;;25.82;13.95;;;;;;;9.14;55.32;102086.78;1748863;82;21374;-77
2020/12/20 06:21:00;;;;;;;25.97;14.43;;;;;;;9.03;55.56;102094.20;1747561;82;21557;-79
2020/12/20 06:23:32;;;;;;;22.35;12.47;;;;;;;9.00;55.61;102098.45;1780417;80;21173;-76
2020/12/20 06:26:04;;;;;;;25.40;13.78;;;;;;;8.97;55.68;102094.64;1747148;82;21185;-78
2020/12/20 06:28:33;;;;;;;25.68;14.78;;;;;;;8.98;55.71;102100.84;1779612;80;21209;-77
2020/12/20 06:31:02;;;;;;;22.62;12.82;;;;;;;8.99;55.76;102105.22;1749336;81;21899;-77
2020/12/20 06:33:44;;;;;;;27.87;14.60;;;;;;;8.97;55.77;102114.69;1779850;80;21153;-78
2020/12/20 06:36:14;;;;;;;24.23;13.75;;;;;;;8.96;55.75;102111.65;1747303;82;21133;-77
2020/12/20 06:38:54;;;;;;;24.25;13.98;;;;;;;8.97;55.72;102117.36;1780226;79;21667;-80
2020/12/20 06:41:34;;;;;;;20.00;11.75;;;;;;;8.95;55.73;102121.97;1779797;80;21078;-77
2020/12/20 06:44:14;;;;;;;27.17;15.05;;;;;;;8.95;55.79;102118.41;1780199;79;21364;-78
2020/12/20 06:46:44;;;;;;;23.52;13.28;;;;;;;8.95;55.86;102120.63;1780022;80;21185;-79
2020/12/20 06:49:39;;;;;;;24.23;14.30;;;;;;;8.97;55.87;102122.70;1772876;80;21190;-78
2020/12/20 06:52:26;;;;;;;25.15;14.10;;;;;;;8.98;55.84;102126.23;1716691;83;21708;-77
2020/12/20 06:55:13;;;;;;;27.27;14.30;;;;;;;8.99;55.77;102118.09;1718472;83;21123;-78
2020/12/20 06:58:14;;;;;;;28.30;14.78;;;;;;;8.98;55.81;102125.74;1718127;83;21374;-79
2020/12/20 07:00:54;;;;;;;25.23;13.80;;;;;;;8.98;55.79;102129.75;1745637;80;21120;-78
2020/12/20 07:03:33;;;;;;;23.73;13.38;;;;;;;8.96;55.82;102129.50;1781541;80;21098;-77
2020/12/20 07:06:10;;;;;;;24.52;14.07;;;;;;;8.95;55.87;102128.66;1770789;80;21190;-79
2020/12/20 07:08:40;;;;;;;24.80;15.13;;;;;;;8.93;55.89;102131.05;1714909;83;21187;-80
2020/12/20 07:11:21;;;;;;;29.90;16.77;;;;;;;8.92;55.93;102130.19;1741488;82;21764;-78
2020/12/20 07:13:51;;;;;;;27.27;15.48;;;;;;;8.95;55.92;102128.66;1741768;82;21194;-80
2020/12/20 07:16:20;;;;;;;31.05;15.65;;;;;;;8.97;55.92;102133.39;1742059;82;21526;-79
2020/12/20 07:19:00;;;;;;;28.95;15.03;;;;;;;8.96;55.90;102133.03;1741734;82;21199;-80
2020/12/20 07:21:41;;;;;;;31.77;16.87;;;;;;;8.95;55.90;102131.78;1743212;82;21115;-79
2020/12/20 07:24:18;;;;;;;28.98;14.95;;;;;;;8.94;55.91;102136.75;1750686;80;21601;-79
2020/12/20 07:26:48;;;;;;;23.95;13.20;;;;;;;8.93;55.93;102127.03;1779796;80;21612;-78
2020/12/20 07:29:16;;;;;;;28.85;15.43;;;;;;;8.95;55.89;102134.45;1779428;80;21146;-78
2020/12/20 07:31:45;;;;;;;26.52;14.95;;;;;;;8.96;55.87;102134.85;1785474;80;21134;-78
2020/12/20 07:34:13;;;;;;;27.98;15.83;;;;;;;8.97;55.88;102131.20;1782285;80;21106;-78
2020/12/20 07:36:41;;;;;;;26.68;14.87;;;;;;;8.99;55.85;102134.61;1773926;80;21374;-79
2020/12/20 07:39:10;;;;;;;27.10;14.83;;;;;;;9.00;55.85;102134.53;1770981;80;21133;-79
2020/12/20 07:41:38;;;;;;;25.27;13.93;;;;;;;9.01;55.84;102133.56;1758268;81;21130;-79
2020/12/20 07:44:06;;;;;;;25.27;14.68;;;;;;;9.00;55.83;102130.52;1756677;81;21520;-78
2020/12/20 07:46:35;;;;;;;27.82;14.10;;;;;;;9.02;55.85;102131.73;1754776;81;21318;-78
2020/12/20 07:49:13;;;;;;;23.40;12.28;;;;;;;9.00;55.88;102133.19;1754134;81;21290;-78
2020/12/20 07:51:41;;;;;;;26.62;14.43;;;;;;;9.00;55.85;102131.86;1753466;81;21019;-78
2020/12/20 07:54:11;;;;;;;29.18;14.85;;;;;;;9.02;55.87;102133.08;1766678;79;21198;-79
2020/12/20 07:56:44;;;;;;;28.45;14.28;;;;;;;9.04;55.90;102137.84;1749673;79;21210;-79
2020/12/20 07:59:17;;;;;;;27.45;14.35;;;;;;;9.04;55.93;102133.84;1747418;81;21181;-79
2020/12/20 08:01:47;;;;;;;25.57;13.43;;;;;;;9.06;55.87;102139.44;1763243;79;21356;-78
2020/12/20 08:04:19;;;;;;;25.55;13.53;;;;;;;9.08;55.91;102141.54;1773301;80;21512;-79
2020/12/20 08:06:49;;;;;;;28.20;14.13;;;;;;;9.06;55.93;102148.79;1769395;80;21173;-79
2020/12/20 08:09:22;;;;;;;22.93;11.65;;;;;;;9.04;55.96;102146.72;1775289;80;21189;-78
2020/12/20 08:11:51;;;;;;;29.48;13.28;;;;;;;9.12;55.79;102148.35;1758089;80;21179;-78
2020/12/20 08:14:21;;;;;;;24.50;13.93;;;;;;;9.08;55.90;102148.22;1700652;82;21468;-78
2020/12/20 08:16:51;;;;;;;23.80;12.90;;;;;;;9.09;55.85;102153.94;1764943;80;21192;-79
2020/12/20 08:19:29;;;;;;;22.50;13.75;;;;;;;9.10;55.77;102157.45;1807845;78;21181;-77
2020/12/20 08:22:14;;;;;;;24.63;13.80;;;;;;;9.08;55.67;102153.56;1728290;81;21647;-79
2020/12/20 08:24:45;;;;;;;24.37;13.65;;;;;;;9.06;55.62;102155.47;1815523;79;21169;-78
2020/12/20 08:27:20;;;;;;;25.25;13.70;;;;;;;9.03;55.64;102150.33;1814839;78;22537;-79
2020/12/20 08:29:53;;;;;;;26.02;13.15;;;;;;;9.03;55.60;102156.16;1798207;78;21200;-79
2020/12/20 08:32:28;;;;;;;19.70;11.43;;;;;;;8.99;55.66;102151.98;1788766;78;21121;-78
2020/12/20 08:35:11;;;;;;;21.82;12.55;;;;;;;9.00;55.67;102157.73;1771038;80;21118;-78
2020/12/20 08:37:38;;;;;;;24.18;13.03;;;;;;;8.99;55.74;102150.16;1730068;82;21204;-78
2020/12/20 08:40:15;;;;;;;26.05;13.32;;;;;;;8.99;55.81;102150.16;1747475;82;21366;-79
2020/12/20 08:42:46;;;;;;;23.52;13.25;;;;;;;8.99;55.85;102146.64;1714333;82;39049;-78
2020/12/20 08:45:19;;;;;;;25.95;14.05;;;;;;;9.02;55.78;102147.29;1749469;81;21336;-79
2020/12/20 08:47:48;;;;;;;22.93;13.18;;;;;;;9.00;55.79;102143.88;1757386;79;21224;-77
2020/12/20 08:50:23;;;;;;;26.95;13.80;;;;;;;9.00;55.72;102145.70;1796299;79;21229;-78
2020/12/20 08:53:03;;;;;;;28.98;13.50;;;;;;;8.98;55.76;102148.95;1780873;80;21568;-80
2020/12/20 08:55:31;;;;;;;27.73;14.85;;;;;;;8.95;55.80;102149.15;1781542;79;21125;-78
2020/12/20 08:58:09;;;;;;;24.82;13.93;;;;;;;8.96;55.82;102150.40;1752147;80;21151;-77
2020/12/20 09:00:36;;;;;;;25.17;14.15;;;;;;;8.97;55.83;102145.42;1774335;79;21136;-78
2020/12/20 09:03:06;;;;;;;26.90;14.73;;;;;;;9.00;55.80;102143.03;1778538;78;21113;-77
2020/12/20 09:05:35;;;;;;;26.57;14.33;;;;;;;9.02;55.80;102146.44;1764084;80;21585;-78
2020/12/20 09:08:05;;;;;;;21.80;12.35;;;;;;;9.01;55.85;102146.92;1761329;80;21110;-77
2020/12/20 09:10:34;;;;;;;24.52;13.85;;;;;;;9.01;55.92;102148.26;1769328;80;21145;-78
2020/12/20 09:13:07;;;;;;;17.42;9.53;;;;;;;9.29;55.35;102150.33;1748652;82;21105;-78
2020/12/20 09:15:36;;;;;;;18.30;11.30;;;;;;;9.52;54.70;102144.20;1754354;80;21135;-78
2020/12/20 09:18:25;;;;;;;19.90;11.68;;;;;;;9.57;54.44;102142.05;1780579;80;21409;-78
2020/12/20 09:20:49;;;;;;;21.48;12.60;;;;;;;9.58;54.40;102143.78;1752231;81;21514;-77
2020/12/20 09:23:23;;;;;;;21.55;12.60;;;;;;;9.61;54.31;102146.20;1781038;80;21097;-80
2020/12/20 09:25:59;;;;;;;24.00;12.82;;;;;;;9.65;54.24;102153.05;1780702;80;21086;-78
2020/12/20 09:28:27;;;;;;;23.05;12.95;;;;;;;9.65;54.13;102151.72;1753228;81;21569;-78
2020/12/20 09:30:56;;;;;;;25.12;13.75;;;;;;;9.65;54.02;102142.34;1780813;80;21362;-79
2020/12/20 09:33:27;;;;;;;24.77;13.35;;;;;;;9.65;54.05;102149.52;1779693;80;21173;-78
2020/12/20 09:36:15;;;;;;;21.30;12.10;;;;;;;9.64;54.02;102148.67;1780133;80;21843;-80
2020/12/20 09:38:44;;;;;;;24.18;14.15;;;;;;;9.66;53.98;102152.08;1777250;80;21173;-78
2020/12/20 09:41:21;;;;;;;25.40;15.40;;;;;;;9.70;53.97;102142.50;1752052;81;21194;-78
2020/12/20 09:43:50;;;;;;;24.77;14.35;;;;;;;9.69;53.98;102138.13;1780762;80;21362;-79
2020/12/20 09:46:28;;;;;;;26.90;15.53;;;;;;;9.70;54.01;102141.16;1780845;80;21319;-77
2020/12/20 09:48:57;;;;;;;24.57;14.05;;;;;;;9.71;54.07;102132.16;1780059;79;21481;-78
2020/12/20 09:51:25;;;;;;;28.47;14.98;;;;;;;9.74;54.09;102130.61;1778927;80;21192;-78
2020/12/20 09:53:53;;;;;;;25.77;14.83;;;;;;;9.73;54.08;102126.23;1783124;78;21185;-79
2020/12/20 09:56:21;;;;;;;25.40;14.00;;;;;;;9.75;54.14;102133.66;1789959;78;21332;-78
2020/12/20 09:58:49;;;;;;;20.20;11.95;;;;;;;9.79;54.10;102131.13;1800477;79;21166;-79
2020/12/20 10:01:27;;;;;;;25.80;14.58;;;;;;;9.78;54.02;102136.97;1780167;79;21161;-78
2020/12/20 10:03:55;;;;;;;22.13;12.80;;;;;;;9.80;53.98;102136.84;1781700;80;21710;-80
2020/12/20 10:06:23;;;;;;;24.77;13.72;;;;;;;9.80;53.99;102132.83;1742358;81;21181;-77
2020/12/20 10:08:51;;;;;;;20.97;12.37;;;;;;;9.80;53.95;102130.16;1738275;81;22232;-80
2020/12/20 10:11:21;;;;;;;21.30;12.43;;;;;;;9.83;53.79;102138.82;1766258;80;21344;-81
2020/12/20 10:13:51;;;;;;;21.33;13.08;;;;;;;9.83;53.72;102137.97;1741400;80;21230;-80
2020/12/20 10:16:19;;;;;;;22.20;13.75;;;;;;;9.81;53.70;102130.06;1797271;78;21363;-80
2020/12/20 10:18:47;;;;;;;20.00;12.03;;;;;;;9.80;53.72;102135.51;1768674;79;21598;-80
2020/12/20 10:21:15;;;;;;;23.07;13.08;;;;;;;9.77;53.67;102132.59;1768187;81;22080;-79
2020/12/20 10:23:45;;;;;;;25.08;14.50;;;;;;;9.75;53.68;102132.31;1765395;81;21732;-80
2020/12/20 10:26:13;;;;;;;24.35;14.03;;;;;;;9.78;53.61;102133.44;1768970;80;21183;-78
2020/12/20 10:28:41;;;;;;;21.95;13.15;;;;;;;9.77;53.65;102131.73;1752072;81;21198;-79
2020/12/20 10:31:09;;;;;;;22.90;13.38;;;;;;;9.73;53.72;102127.58;1767666;80;21170;-79
2020/12/20 10:33:37;;;;;;;21.62;12.95;;;;;;;9.74;53.76;102131.95;1776440;80;21803;-78
2020/12/20 10:36:05;;;;;;;21.20;12.80;;;;;;;9.72;53.82;102132.08;1779200;80;21133;-79
2020/12/20 10:38:33;;;;;;;24.23;12.88;;;;;;;9.77;53.74;102133.92;1773849;80;21106;-79
2020/12/20 10:41:02;;;;;;;23.92;13.58;;;;;;;9.80;53.69;102134.17;1772175;80;21182;-80
2020/12/20 10:43:30;;;;;;;17.37;10.60;;;;;;;9.80;53.74;102136.84;1778004;80;21560;-79
2020/12/20 10:45:58;;;;;;;42.80;29.87;;;;;;;9.82;53.74;102133.59;1777606;79;22621;-79
2020/12/20 10:48:25;;;;;;;23.67;13.15;;;;;;;9.83;53.72;102132.13;1777856;80;21229;-79
2020/12/20 10:50:53;;;;;;;20.82;12.53;;;;;;;9.88;53.72;102128.63;1778702;80;22031;-80
2020/12/20 10:53:21;;;;;;;18.25;11.12;;;;;;;9.90;53.64;102124.03;1777846;80;21460;-79
2020/12/20 10:55:49;;;;;;;16.73;10.63;;;;;;;9.95;53.46;102129.50;1775131;79;22243;-79
2020/12/20 10:58:17;;;;;;;15.75;9.78;;;;;;;9.96;53.31;102125.39;1744845;81;21634;-79
2020/12/20 11:00:45;;;;;;;17.48;10.93;;;;;;;9.95;53.14;102123.70;1786386;79;21073;-79
2020/12/20 11:03:13;;;;;;;18.02;11.08;;;;;;;9.94;53.17;102123.79;1720700;81;21225;-79
2020/12/20 11:05:40;;;;;;;17.25;10.00;;;;;;;9.96;53.15;102116.52;1770016;79;21180;-78
2020/12/20 11:08:08;;;;;;;16.67;11.18;;;;;;;9.93;53.17;102114.91;1760889;79;21676;-78
2020/12/20 11:10:36;;;;;;;19.25;10.82;;;;;;;9.96;53.13;102108.48;1753016;81;21378;-78
2020/12/20 11:13:06;;;;;;;16.90;10.88;;;;;;;9.96;53.06;102113.35;1753567;81;21200;-78
2020/12/20 11:15:34;;;;;;;15.63;9.55;;;;;;;9.99;53.06;102121.16;1772416;79;21200;-78
2020/12/20 11:18:03;;;;;;;15.13;9.95;;;;;;;10.00;52.85;102120.67;1779489;80;21200;-80
2020/12/20 11:20:31;;;;;;;14.28;9.75;;;;;;;9.98;52.78;102124.78;1761210;80;21193;-78
2020/12/20 11:23:04;;;;;;;18.00;9.50;;;;;;;9.96;52.73;102125.88;1774097;80;21357;-78
2020/12/20 11:25:30;;;;;;;12.93;8.53;;;;;;;9.94;52.68;102128.66;1775647;78;21180;-79
2020/12/20 11:27:58;;;;;;;13.03;8.35;;;;;;;9.95;52.58;102133.52;1780302;78;21205;-81
2020/12/20 11:30:26;;;;;;;12.93;8.35;;;;;;;9.93;52.48;102138.14;1778035;80;21181;-78
2020/12/20 11:32:55;;;;;;;13.22;8.83;;;;;;;9.93;52.50;102132.30;1774810;80;21328;-81